Time;durP1;ratioP1;P1;durP2;ratioP2;P2;SDS_P1;SDS_P2;PMS_P1;PMS_P2;Temp;Humidity;BMP_temperature;BMP_pressure;BME280_temperature;BME280_humidity;BME280_pressure;Samples;Min_cycle;Max_cycle;Signal;HPM_P1;HPM_P2
2022/04/03 00:01:44;;;;;;;38.90;25.90;;;;;;;2.27;100.00;99415.31;5082876;28;20379;-71
2022/04/03 00:04:09;;;;;;;39.47;25.95;;;;;;;2.26;100.00;99401.22;5093047;28;20031;-72
2022/04/03 00:06:35;;;;;;;36.63;24.98;;;;;;;2.24;100.00;99389.06;5105819;28;20035;-72
2022/04/03 00:09:01;;;;;;;38.05;26.02;;;;;;;2.31;100.00;99416.78;5102657;28;20047;-72
2022/04/03 00:11:28;;;;;;;38.55;25.77;;;;;;;2.20;100.00;99390.25;5102317;28;20111;-71
2022/04/03 00:13:54;;;;;;;38.55;26.10;;;;;;;2.33;100.00;99404.31;5097461;28;20031;-72
2022/04/03 00:16:19;;;;;;;38.88;24.73;;;;;;;2.31;100.00;99401.78;5083482;28;20046;-71
2022/04/03 00:18:45;;;;;;;36.90;25.83;;;;;;;2.34;100.00;99404.22;5081149;28;20122;-72
2022/04/03 00:21:13;;;;;;;37.92;25.60;;;;;;;2.32;100.00;99408.75;5095707;28;20023;-73
2022/04/03 00:23:39;;;;;;;40.75;24.67;;;;;;;2.29;100.00;99401.03;5095126;28;20115;-72
2022/04/03 00:26:04;;;;;;;42.38;27.30;;;;;;;2.34;100.00;99422.72;5081085;28;20115;-72
2022/04/03 00:28:30;;;;;;;40.70;26.85;;;;;;;2.25;100.00;99410.13;5098123;28;20073;-72
2022/04/03 00:30:56;;;;;;;43.35;28.42;;;;;;;2.25;100.00;99418.06;5100461;28;20079;-73
2022/04/03 00:33:22;;;;;;;42.75;27.05;;;;;;;2.27;100.00;99418.81;5094379;28;20023;-72
2022/04/03 00:35:50;;;;;;;44.65;28.42;;;;;;;2.19;100.00;99402.63;5076751;28;20024;-71
2022/04/03 00:38:16;;;;;;;40.33;26.95;;;;;;;2.28;100.00;99420.50;5097471;28;20379;-72
2022/04/03 00:40:44;;;;;;;43.13;26.95;;;;;;;2.24;100.00;99423.47;5099644;28;20028;-72
2022/04/03 00:43:11;;;;;;;43.35;28.63;;;;;;;2.22;100.00;99414.78;5097404;28;20030;-73
2022/04/03 00:45:45;;;;;;;41.53;27.48;;;;;;;2.26;100.00;99424.22;5091893;28;20027;-73
2022/04/03 00:48:11;;;;;;;40.33;26.85;;;;;;;2.26;100.00;99424.22;5094584;28;20042;-72
2022/04/03 00:50:37;;;;;;;43.85;28.33;;;;;;;2.18;100.00;99400.94;5099742;28;20106;-72
2022/04/03 00:53:03;;;;;;;40.67;26.80;;;;;;;2.26;100.00;99425.03;5094709;28;20024;-73
2022/04/03 00:55:29;;;;;;;39.88;26.33;;;;;;;2.36;100.00;99426.09;5091556;28;20044;-71
2022/04/03 00:57:57;;;;;;;38.20;26.38;;;;;;;2.31;100.00;99424.72;5097014;28;20375;-73
2022/04/03 01:00:23;;;;;;;39.78;25.98;;;;;;;2.30;100.00;99423.88;5094147;28;20024;-73
2022/04/03 01:02:49;;;;;;;44.00;28.65;;;;;;;2.17;100.00;99403.69;5091853;28;20375;-73
2022/04/03 01:05:15;;;;;;;40.35;26.98;;;;;;;2.24;100.00;99426.97;5096672;28;20031;-72
2022/04/03 01:07:40;;;;;;;43.13;26.85;;;;;;;2.20;100.00;99412.22;5083687;28;20041;-73
2022/04/03 01:10:07;;;;;;;39.97;27.23;;;;;;;2.17;100.00;99411.59;5098985;28;20498;-73
2022/04/03 01:12:32;;;;;;;41.85;27.90;;;;;;;2.24;100.00;99421.66;5082477;28;20032;-73
2022/04/03 01:14:58;;;;;;;39.50;26.23;;;;;;;2.30;100.00;99431.81;5095988;28;20031;-73
2022/04/03 01:17:23;;;;;;;42.78;28.25;;;;;;;2.28;100.00;99433.72;5089642;28;20024;-71
2022/04/03 01:19:48;;;;;;;40.05;27.48;;;;;;;2.26;100.00;99430.34;5096317;28;20032;-73
2022/04/03 01:22:14;;;;;;;41.20;28.20;;;;;;;2.26;100.00;99435.63;5091334;28;20361;-73
2022/04/03 01:24:43;;;;;;;43.65;28.52;;;;;;;2.30;100.00;99446.84;5093799;28;20502;-73
2022/04/03 01:27:08;;;;;;;39.78;26.98;;;;;;;2.33;100.00;99436.06;5096574;28;20049;-72
2022/04/03 01:29:34;;;;;;;41.40;27.67;;;;;;;2.29;100.00;99432.75;5074865;28;20531;-72
2022/04/03 01:32:00;;;;;;;42.47;28.90;;;;;;;2.31;100.00;99449.41;5093765;28;20527;-72
2022/04/03 01:34:25;;;;;;;41.40;27.67;;;;;;;2.34;100.00;99454.47;5093451;28;20024;-72
2022/04/03 01:36:51;;;;;;;45.35;29.27;;;;;;;2.32;100.00;99450.22;5090540;28;20454;-70
2022/04/03 01:39:16;;;;;;;45.03;28.48;;;;;;;2.31;100.00;99444.09;5096054;28;20059;-70
2022/04/03 01:41:43;;;;;;;40.78;26.85;;;;;;;2.52;100.00;99451.50;5102223;28;20569;-70
2022/04/03 01:44:10;;;;;;;38.58;27.13;;;;;;;2.56;100.00;99460.94;5091033;28;20032;-70
2022/04/03 01:46:39;;;;;;;39.83;26.25;;;;;;;2.53;100.00;99471.72;5090633;28;20038;-70
2022/04/03 01:49:06;;;;;;;41.15;27.35;;;;;;;2.52;100.00;99470.03;5093082;28;20036;-70
2022/04/03 01:51:32;;;;;;;41.20;27.13;;;;;;;2.52;100.00;99468.25;5098011;28;20043;-69
2022/04/03 01:53:59;;;;;;;39.58;27.33;;;;;;;2.53;100.00;99474.38;5095233;28;20042;-70
2022/04/03 01:56:26;;;;;;;41.03;27.15;;;;;;;2.52;100.00;99467.41;5093282;28;20480;-69
2022/04/03 01:58:51;;;;;;;35.92;24.55;;;;;;;2.60;100.00;99478.28;5099561;28;20471;-68
2022/04/03 02:01:17;;;;;;;37.65;25.42;;;;;;;2.59;100.00;99477.47;5091998;28;20028;-70
2022/04/03 02:03:42;;;;;;;36.00;25.75;;;;;;;2.56;100.00;99468.88;5091492;28;20700;-70
2022/04/03 02:06:08;;;;;;;35.70;25.20;;;;;;;2.67;100.00;99490.16;5090797;28;20036;-69
2022/04/03 02:08:33;;;;;;;38.78;24.65;;;;;;;2.64;100.00;99485.09;5101052;28;20090;-69
2022/04/03 02:10:59;;;;;;;36.40;25.67;;;;;;;2.65;100.00;99486.78;5095916;28;20039;-70
2022/04/03 02:13:25;;;;;;;38.00;26.25;;;;;;;2.67;100.00;99485.69;5099531;28;20065;-68
2022/04/03 02:15:51;;;;;;;29.48;20.15;;;;;;;2.75;100.00;99486.03;5092407;28;20036;-69
2022/04/03 02:18:17;;;;;;;26.33;17.95;;;;;;;2.73;100.00;99493.22;5096023;28;20502;-69
2022/04/03 02:20:43;;;;;;;23.17;16.25;;;;;;;2.71;100.00;99487.19;5079516;28;20020;-68
2022/04/03 02:23:10;;;;;;;19.83;14.40;;;;;;;2.76;100.00;99497.44;5091937;28;20035;-70
2022/04/03 02:25:36;;;;;;;23.08;15.88;;;;;;;2.72;100.00;99485.38;5093234;28;20051;-70
2022/04/03 02:28:04;;;;;;;19.02;13.82;;;;;;;2.74;100.00;99489.63;5088275;28;20028;-69
2022/04/03 02:30:30;;;;;;;19.67;13.65;;;;;;;2.74;100.00;99491.44;5090222;28;20486;-69
2022/04/03 02:32:56;;;;;;;18.17;13.52;;;;;;;2.72;100.00;99488.03;5095821;28;20054;-70
2022/04/03 02:35:21;;;;;;;17.88;11.98;;;;;;;2.73;100.00;99481.78;5090075;28;20096;-70
2022/04/03 02:37:47;;;;;;;17.60;12.13;;;;;;;2.70;100.00;99487.31;5093194;28;20028;-69
2022/04/03 02:40:16;;;;;;;17.63;12.30;;;;;;;2.62;100.00;99487.84;5093262;28;20039;-69
2022/04/03 02:42:42;;;;;;;18.50;12.05;;;;;;;2.54;100.00;99487.50;5092582;28;20085;-69
2022/04/03 02:45:12;;;;;;;18.02;11.88;;;;;;;2.65;100.00;99500.88;5093108;28;20518;-68
2022/04/03 02:47:38;;;;;;;17.73;11.77;;;;;;;2.63;100.00;99501.91;5099719;28;20047;-69
2022/04/03 02:50:05;;;;;;;17.10;12.68;;;;;;;2.62;100.00;99505.50;5091573;28;20020;-69
2022/04/03 02:52:30;;;;;;;19.45;12.43;;;;;;;2.64;100.00;99512.38;5094867;28;20044;-67
2022/04/03 02:54:57;;;;;;;19.60;12.05;;;;;;;2.61;100.00;99498.53;5090441;28;20077;-69
2022/04/03 02:57:23;;;;;;;17.58;12.68;;;;;;;2.67;100.00;99503.41;5095534;28;20231;-73
2022/04/03 02:59:48;;;;;;;19.83;13.65;;;;;;;2.55;100.00;99491.00;5090580;28;20024;-71
2022/04/03 03:02:14;;;;;;;18.13;12.93;;;;;;;2.68;100.00;99515.69;5103210;28;20046;-72
2022/04/03 03:04:39;;;;;;;19.35;12.80;;;;;;;2.63;100.00;99502.75;5086665;28;20028;-72
2022/04/03 03:07:06;;;;;;;20.80;14.43;;;;;;;2.71;100.00;99521.59;5093064;28;20449;-72
2022/04/03 03:09:32;;;;;;;19.83;13.70;;;;;;;2.73;100.00;99516.19;5079387;28;20051;-72
2022/04/03 03:12:00;;;;;;;19.52;14.27;;;;;;;2.75;100.00;99524.88;5099472;28;20034;-72
2022/04/03 03:14:28;;;;;;;22.63;14.43;;;;;;;2.75;100.00;99528.41;5096735;28;20023;-72
2022/04/03 03:16:55;;;;;;;19.20;14.02;;;;;;;2.75;100.00;99532.81;5099175;28;20665;-73
2022/04/03 03:19:21;;;;;;;20.60;14.07;;;;;;;2.77;100.00;99534.41;5089179;28;20035;-72
2022/04/03 03:21:46;;;;;;;19.35;13.63;;;;;;;2.75;100.00;99535.47;5093485;28;20476;-72
2022/04/03 03:24:12;;;;;;;21.38;13.68;;;;;;;2.78;100.00;99540.56;5096270;28;20526;-71
2022/04/03 03:26:38;;;;;;;20.77;14.13;;;;;;;2.75;100.00;99538.97;5103211;28;20043;-71
2022/04/03 03:29:04;;;;;;;20.75;14.35;;;;;;;2.75;100.00;99546.06;5089195;28;20099;-71
2022/04/03 03:31:29;;;;;;;20.95;14.57;;;;;;;2.75;100.00;99551.34;5072223;28;20024;-73
2022/04/03 03:33:55;;;;;;;21.48;14.48;;;;;;;2.70;100.00;99546.38;5096447;28;20602;-70
2022/04/03 03:36:20;;;;;;;22.98;14.80;;;;;;;2.73;100.00;99551.47;5079275;28;20023;-71
2022/04/03 03:38:46;;;;;;;21.83;15.65;;;;;;;2.72;100.00;99548.91;5100363;28;20031;-72
2022/04/03 03:41:14;;;;;;;23.08;15.02;;;;;;;2.70;100.00;99556.13;5096120;28;20055;-72
2022/04/03 03:43:40;;;;;;;23.75;15.38;;;;;;;2.71;100.00;99563.13;5100269;28;20394;-73
2022/04/03 03:46:05;;;;;;;21.73;15.18;;;;;;;2.66;100.00;99554.63;5097162;28;20081;-74
2022/04/03 03:48:30;;;;;;;24.48;15.98;;;;;;;2.59;100.00;99546.28;5105745;28;20046;-74
2022/04/03 03:50:56;;;;;;;23.08;15.43;;;;;;;2.58;100.00;99551.66;5099447;28;20505;-74
2022/04/03 03:53:22;;;;;;;23.73;16.48;;;;;;;2.61;100.00;99562.03;5100379;28;20027;-73
2022/04/03 03:55:47;;;;;;;23.27;16.02;;;;;;;2.64;100.00;99569.78;5093477;28;20036;-73
2022/04/03 03:58:13;;;;;;;21.88;15.20;;;;;;;2.63;100.00;99573.34;5094976;28;20067;-71
2022/04/03 04:00:38;;;;;;;27.58;17.15;;;;;;;2.62;100.00;99574.31;5100917;28;20020;-72
2022/04/03 04:03:04;;;;;;;24.50;15.98;;;;;;;2.61;100.00;99583.22;5095967;28;20016;-71
2022/04/03 04:05:30;;;;;;;24.17;15.93;;;;;;;2.61;100.00;99583.22;5091498;28;20081;-72
2022/04/03 04:07:55;;;;;;;23.42;15.63;;;;;;;2.58;100.00;99588.72;5097447;28;20055;-72
2022/04/03 04:10:21;;;;;;;24.23;15.95;;;;;;;2.57;100.00;99589.69;5093839;28;20059;-72
2022/04/03 04:12:47;;;;;;;25.05;16.48;;;;;;;2.55;100.00;99594.22;5089294;28;20032;-72
2022/04/03 04:15:14;;;;;;;27.73;17.00;;;;;;;2.56;100.00;99601.19;5091304;28;20107;-71
2022/04/03 04:17:45;;;;;;;24.83;16.77;;;;;;;2.56;100.00;99603.84;5094515;28;20394;-72
2022/04/03 04:20:13;;;;;;;24.58;15.88;;;;;;;2.56;100.00;99612.63;5097357;28;20028;-71
2022/04/03 04:22:39;;;;;;;26.95;17.10;;;;;;;2.55;100.00;99608.31;5094956;28;20040;-72
2022/04/03 04:25:06;;;;;;;27.25;17.27;;;;;;;2.57;100.00;99616.13;5094986;28;20019;-72
2022/04/03 04:27:32;;;;;;;24.75;16.42;;;;;;;2.55;100.00;99613.59;5097390;28;20115;-72
2022/04/03 04:29:57;;;;;;;23.05;16.52;;;;;;;2.57;100.00;99621.44;5099348;28;20096;-72
2022/04/03 04:32:23;;;;;;;26.38;15.85;;;;;;;2.52;100.00;99620.88;5094529;28;20063;-71
2022/04/03 04:34:49;;;;;;;26.35;16.80;;;;;;;2.56;100.00;99628.50;5093250;28;20031;-72
2022/04/03 04:37:15;;;;;;;25.10;16.40;;;;;;;2.56;100.00;99639.09;5092685;28;20052;-72
2022/04/03 04:39:40;;;;;;;24.17;16.27;;;;;;;2.57;100.00;99645.25;5092287;28;20028;-72
2022/04/03 04:42:06;;;;;;;24.92;16.35;;;;;;;2.56;100.00;99648.81;5080320;28;20075;-71
2022/04/03 04:44:31;;;;;;;23.58;15.90;;;;;;;2.54;100.00;99651.56;5093648;28;20024;-71
2022/04/03 04:46:57;;;;;;;26.45;16.67;;;;;;;2.47;100.00;99650.28;5093960;28;20039;-72
2022/04/03 04:49:22;;;;;;;24.75;16.05;;;;;;;2.54;100.00;99663.97;5098062;28;20028;-72
2022/04/03 04:51:48;;;;;;;23.52;15.50;;;;;;;2.48;100.00;99662.56;5092474;28;20031;-71
2022/04/03 04:54:13;;;;;;;24.67;16.73;;;;;;;2.50;100.00;99667.75;5093209;28;20404;-73
2022/04/03 04:56:39;;;;;;;23.05;16.25;;;;;;;2.52;100.00;99673.81;5093917;28;20039;-72
2022/04/03 04:59:05;;;;;;;24.55;15.38;;;;;;;2.55;100.00;99681.53;5091297;28;20046;-71
2022/04/03 05:01:30;;;;;;;24.60;16.15;;;;;;;2.56;100.00;99677.94;5094093;28;20016;-72
2022/04/03 05:03:56;;;;;;;23.08;15.85;;;;;;;2.49;100.00;99664.28;5096378;28;20063;-72
2022/04/03 05:06:23;;;;;;;26.67;16.65;;;;;;;2.57;100.00;99687.59;5097658;28;20059;-72
2022/04/03 05:08:50;;;;;;;28.45;16.75;;;;;;;2.50;100.00;99684.47;5100409;28;20058;-71
2022/04/03 05:11:15;;;;;;;28.20;17.60;;;;;;;2.50;100.00;99695.06;5091007;28;20024;-72
2022/04/03 05:13:42;;;;;;;28.25;17.52;;;;;;;2.50;100.00;99696.84;5077599;28;20487;-68
2022/04/03 05:16:08;;;;;;;27.23;17.23;;;;;;;2.55;100.00;99705.38;5094335;28;20107;-69
2022/04/03 05:18:37;;;;;;;25.95;16.85;;;;;;;2.56;100.00;99707.91;5092412;28;20123;-70
2022/04/03 05:21:04;;;;;;;26.05;17.23;;;;;;;2.55;100.00;99711.50;5093963;28;20016;-69
2022/04/03 05:23:31;;;;;;;26.20;16.80;;;;;;;2.56;100.00;99710.56;5090980;28;20470;-70
2022/04/03 05:25:57;;;;;;;26.20;17.05;;;;;;;2.63;100.00;99724.22;5077062;28;20456;-70
2022/04/03 05:28:23;;;;;;;27.30;17.30;;;;;;;2.61;100.00;99720.84;5093914;28;20072;-69
2022/04/03 05:30:49;;;;;;;31.65;18.40;;;;;;;2.63;100.00;99724.22;5088773;28;20036;-69
2022/04/03 05:33:15;;;;;;;27.48;19.20;;;;;;;2.57;100.00;99714.06;5089887;28;20051;-69
2022/04/03 05:35:41;;;;;;;33.00;20.15;;;;;;;2.68;100.00;99727.44;5087585;28;20051;-69
2022/04/03 05:38:07;;;;;;;27.15;17.92;;;;;;;2.70;100.00;99736.13;5089650;28;20093;-69
2022/04/03 05:40:33;;;;;;;25.23;16.95;;;;;;;2.75;100.00;99731.38;5094907;28;20032;-70
2022/04/03 05:42:59;;;;;;;25.67;16.60;;;;;;;2.79;100.00;99741.66;5094792;28;20081;-68
2022/04/03 05:45:25;;;;;;;24.52;16.40;;;;;;;2.80;100.00;99737.22;5092602;28;20035;-68
2022/04/03 05:47:51;;;;;;;26.83;17.35;;;;;;;2.85;100.00;99743.06;5100822;28;20037;-69
2022/04/03 05:50:17;;;;;;;28.15;18.42;;;;;;;2.89;100.00;99755.13;5089843;28;20036;-70
2022/04/03 05:52:45;;;;;;;31.90;19.13;;;;;;;2.99;100.00;99757.09;5095797;28;20039;-69
2022/04/03 05:55:11;;;;;;;30.65;19.88;;;;;;;3.06;100.00;99760.19;5093360;28;20070;-71
2022/04/03 05:57:38;;;;;;;27.27;16.92;;;;;;;3.15;100.00;99764.88;5092037;28;20092;-68
2022/04/03 06:00:12;;;;;;;27.75;17.27;;;;;;;3.19;100.00;99766.38;5098476;28;20106;-68
2022/04/03 06:02:54;;;;;;;26.38;16.63;;;;;;;3.29;100.00;99776.25;5095682;28;20573;-67
2022/04/03 06:05:24;;;;;;;25.77;16.38;;;;;;;3.34;100.00;99775.94;5089750;28;20023;-68
2022/04/03 06:07:50;;;;;;;25.13;16.75;;;;;;;3.35;100.00;99769.72;5096567;28;20398;-69
2022/04/03 06:10:19;;;;;;;26.33;16.38;;;;;;;3.43;100.00;99785.94;5096106;28;20518;-68
2022/04/03 06:12:54;;;;;;;23.67;15.90;;;;;;;3.42;100.00;99773.63;5090356;28;20036;-69
2022/04/03 06:15:19;;;;;;;26.60;16.88;;;;;;;3.54;100.00;99788.69;5090822;28;20031;-67
2022/04/03 06:17:48;;;;;;;25.63;16.30;;;;;;;3.48;100.00;99789.13;5086662;28;20032;-69
2022/04/03 06:20:13;;;;;;;25.95;16.90;;;;;;;3.48;100.00;99789.97;5097421;28;20024;-68
2022/04/03 06:22:39;;;;;;;29.80;18.88;;;;;;;3.47;100.00;99798.00;5091496;28;20464;-68
2022/04/03 06:25:06;;;;;;;23.60;16.10;;;;;;;3.48;100.00;99787.31;5089300;28;20089;-69
2022/04/03 06:27:32;;;;;;;21.42;14.70;;;;;;;3.55;100.00;99798.38;5092645;28;20383;-69
2022/04/03 06:29:57;;;;;;;21.73;15.23;;;;;;;3.45;99.60;99784.88;5089553;28;20032;-68
2022/04/03 06:32:23;;;;;;;22.75;15.48;;;;;;;3.51;100.00;99804.84;5093957;28;20407;-69
2022/04/03 06:34:48;;;;;;;26.48;17.17;;;;;;;3.46;100.00;99812.22;5088230;28;20028;-68
2022/04/03 06:37:14;;;;;;;31.48;19.55;;;;;;;3.42;100.00;99800.13;5098250;28;20476;-69
2022/04/03 06:39:39;;;;;;;29.85;19.48;;;;;;;3.43;100.00;99815.09;5081727;28;20040;-70
2022/04/03 06:42:05;;;;;;;24.13;17.10;;;;;;;3.37;100.00;99805.75;5080993;28;20027;-69
2022/04/03 06:44:31;;;;;;;27.15;17.10;;;;;;;3.61;100.00;99829.78;5094656;28;20034;-71
2022/04/03 06:46:56;;;;;;;30.42;17.52;;;;;;;3.52;100.00;99822.44;5092061;28;20032;-70
2022/04/03 06:49:22;;;;;;;29.25;17.10;;;;;;;3.62;99.33;99834.97;5091475;28;20044;-70
2022/04/03 06:51:47;;;;;;;27.55;17.45;;;;;;;3.51;100.00;99831.34;5093449;28;20539;-70
2022/04/03 06:54:13;;;;;;;22.02;15.93;;;;;;;3.54;100.00;99839.91;5093761;28;20031;-71
2022/04/03 06:56:38;;;;;;;24.50;16.52;;;;;;;3.39;100.00;99842.75;5078259;28;20040;-71
2022/04/03 06:59:04;;;;;;;23.23;14.77;;;;;;;3.47;100.00;99853.69;5079575;28;20020;-72
2022/04/03 07:01:30;;;;;;;21.27;15.45;;;;;;;3.48;100.00;99863.34;5076803;28;20081;-71
2022/04/03 07:03:55;;;;;;;22.63;15.63;;;;;;;3.56;100.00;99863.69;5093305;28;20044;-72
2022/04/03 07:06:21;;;;;;;20.95;14.80;;;;;;;3.65;100.00;99857.78;5097116;28;20399;-71
2022/04/03 07:08:48;;;;;;;20.02;14.50;;;;;;;3.72;100.00;99864.34;5084497;28;20035;-72
2022/04/03 07:11:14;;;;;;;20.15;14.80;;;;;;;3.77;100.00;99867.56;5105065;28;20035;-69
2022/04/03 07:13:40;;;;;;;20.05;14.20;;;;;;;3.87;100.00;99885.38;5089498;28;20043;-69
2022/04/03 07:16:06;;;;;;;19.60;14.00;;;;;;;3.91;100.00;99883.38;5099986;28;20027;-69
2022/04/03 07:18:31;;;;;;;19.80;13.73;;;;;;;3.97;100.00;99877.66;5083238;28;20043;-70
2022/04/03 07:20:57;;;;;;;18.45;13.18;;;;;;;4.10;100.00;99887.31;5095439;28;20032;-71
2022/04/03 07:23:24;;;;;;;17.67;12.93;;;;;;;4.18;99.58;99895.63;5101271;28;20026;-70
2022/04/03 07:25:49;;;;;;;17.88;12.73;;;;;;;4.18;99.82;99892.09;5097628;28;20021;-71
2022/04/03 07:28:15;;;;;;;18.42;13.18;;;;;;;4.28;99.83;99901.13;5098279;28;20027;-69
2022/04/03 07:30:40;;;;;;;16.13;11.70;;;;;;;4.40;98.15;99902.94;5100403;28;20035;-68
2022/04/03 07:33:09;;;;;;;18.67;12.90;;;;;;;4.42;97.49;99914.31;5096199;28;20027;-69
2022/04/03 07:35:34;;;;;;;16.80;12.73;;;;;;;4.37;97.00;99914.63;5081757;28;20027;-69
2022/04/03 07:38:00;;;;;;;20.08;13.73;;;;;;;4.40;97.81;99924.19;5100279;28;20035;-69
2022/04/03 07:40:26;;;;;;;20.38;13.07;;;;;;;4.27;97.42;99910.06;5092899;28;20023;-70
2022/04/03 07:42:52;;;;;;;20.00;13.70;;;;;;;4.40;97.61;99926.84;5099743;28;20430;-69
2022/04/03 07:45:18;;;;;;;18.75;13.57;;;;;;;4.31;98.00;99906.22;5100256;28;20034;-68
2022/04/03 07:47:49;;;;;;;17.20;13.18;;;;;;;4.50;98.12;99935.88;5097343;28;20507;-68
2022/04/03 07:50:16;;;;;;;17.02;12.13;;;;;;;4.51;96.49;99927.78;5095476;28;20032;-69
2022/04/03 07:52:41;;;;;;;18.48;12.95;;;;;;;4.51;97.36;99932.25;5078094;28;20028;-68
2022/04/03 07:55:10;;;;;;;18.63;12.93;;;;;;;4.54;96.84;99953.28;5100598;28;20031;-70
2022/04/03 07:57:40;;;;;;;17.33;12.32;;;;;;;4.59;95.97;99951.16;5094930;28;20040;-69
2022/04/03 08:00:08;;;;;;;17.60;13.25;;;;;;;4.52;96.63;99964.00;5092441;28;20020;-70
2022/04/03 08:02:40;;;;;;;17.77;13.77;;;;;;;4.54;96.77;99956.78;5094888;28;20477;-71
2022/04/03 08:05:07;;;;;;;19.45;14.00;;;;;;;4.45;97.40;99952.13;5103144;28;20028;-70
2022/04/03 08:07:44;;;;;;;21.48;13.75;;;;;;;4.54;97.69;99963.91;5097150;28;20096;-71
2022/04/03 08:10:13;;;;;;;18.45;13.27;;;;;;;4.59;98.16;99972.41;5100516;28;20415;-71
2022/04/03 08:12:43;;;;;;;20.02;13.75;;;;;;;4.56;96.66;99969.97;5096542;28;20140;-71
2022/04/03 08:15:13;;;;;;;19.38;14.07;;;;;;;4.60;97.21;99979.41;5094735;28;20024;-70
2022/04/03 08:17:39;;;;;;;18.77;13.85;;;;;;;4.61;97.79;99976.66;5093094;28;20032;-71
2022/04/03 08:20:09;;;;;;;21.05;13.95;;;;;;;4.70;95.53;99985.78;5095456;28;20024;-71
2022/04/03 08:22:37;;;;;;;20.88;14.55;;;;;;;4.58;96.00;99989.31;5098120;28;20032;-70
2022/04/03 08:25:03;;;;;;;19.48;13.32;;;;;;;4.51;96.40;99978.25;5093090;28;20021;-70
2022/04/03 08:27:52;;;;;;;21.05;14.95;;;;;;;4.48;96.50;99996.19;5080996;28;20044;-71
2022/04/03 08:30:28;;;;;;;19.10;13.82;;;;;;;4.48;98.23;100002.34;5089755;28;20036;-70
2022/04/03 08:32:54;;;;;;;22.98;15.20;;;;;;;4.35;98.81;99987.34;5100553;28;20027;-70
2022/04/03 08:35:21;;;;;;;23.25;15.43;;;;;;;4.38;99.00;100006.59;5092493;28;20032;-71
2022/04/03 08:37:48;;;;;;;20.38;14.10;;;;;;;4.41;99.49;100006.38;5096170;28;20034;-70
2022/04/03 08:40:14;;;;;;;21.33;14.20;;;;;;;4.45;99.42;100009.69;5080982;28;20028;-69
2022/04/03 08:42:40;;;;;;;20.77;14.82;;;;;;;4.41;99.64;100011.69;5095957;28;20046;-70
2022/04/03 08:45:11;;;;;;;23.00;15.07;;;;;;;4.42;99.75;100007.25;5094343;28;20024;-69
2022/04/03 08:47:47;;;;;;;20.92;14.95;;;;;;;4.33;99.63;100016.66;5093666;28;20059;-70
2022/04/03 08:50:15;;;;;;;21.08;14.88;;;;;;;4.44;99.50;100018.59;5090729;28;20032;-69
2022/04/03 08:52:49;;;;;;;22.95;15.13;;;;;;;4.45;100.00;100033.59;5094243;28;20110;-70
2022/04/03 08:55:15;;;;;;;24.05;16.05;;;;;;;4.46;100.00;100029.97;5099818;28;20026;-69
2022/04/03 08:57:41;;;;;;;24.70;16.48;;;;;;;4.51;99.61;100031.34;5096955;28;20487;-69
2022/04/03 09:00:08;;;;;;;26.25;17.48;;;;;;;4.44;99.32;100031.88;5093747;28;20031;-69
2022/04/03 09:02:34;;;;;;;26.40;17.88;;;;;;;4.41;99.42;100019.66;5093954;28;20028;-69
2022/04/03 09:05:00;;;;;;;23.85;16.25;;;;;;;4.43;99.73;100043.44;5097043;28;20035;-68
2022/04/03 09:07:26;;;;;;;23.17;15.02;;;;;;;4.42;100.00;100037.28;5079255;28;20070;-70
2022/04/03 09:10:05;;;;;;;20.83;14.25;;;;;;;4.57;99.27;100032.75;5097162;28;20692;-69
2022/04/03 09:12:30;;;;;;;18.63;13.23;;;;;;;4.60;96.56;100036.03;5092044;28;20036;-71
2022/04/03 09:14:56;;;;;;;17.23;12.60;;;;;;;4.44;97.75;100037.19;5094273;28;20036;-70
2022/04/03 09:17:33;;;;;;;17.08;11.77;;;;;;;4.41;98.09;100050.66;5080607;28;20031;-69
2022/04/03 09:20:14;;;;;;;18.25;12.75;;;;;;;4.38;100.00;100042.88;5078064;28;20032;-71
2022/04/03 09:22:45;;;;;;;20.58;13.63;;;;;;;4.39;99.82;100042.78;5091982;28;20050;-69
2022/04/03 09:25:12;;;;;;;16.48;12.02;;;;;;;4.52;100.00;100056.13;5091145;28;20023;-69
2022/04/03 09:27:49;;;;;;;15.45;11.05;;;;;;;4.48;100.00;100051.94;5081049;28;20166;-68
2022/04/03 09:30:15;;;;;;;19.60;12.60;;;;;;;4.61;99.57;100045.72;5089669;28;20028;-69
2022/04/03 09:32:54;;;;;;;18.48;12.40;;;;;;;4.55;100.00;100045.28;5095475;28;20039;-68
2022/04/03 09:35:24;;;;;;;16.63;10.60;;;;;;;4.83;97.83;100055.72;5073731;28;20039;-68
2022/04/03 09:38:09;;;;;;;13.45;10.60;;;;;;;4.63;97.32;100046.47;5099541;28;20460;-68
2022/04/03 09:40:36;;;;;;;14.45;10.00;;;;;;;4.62;97.78;100060.69;5079634;28;20510;-69
2022/04/03 09:43:32;;;;;;;13.20;10.07;;;;;;;4.62;97.46;100057.19;5095171;28;20440;-69
2022/04/03 09:46:05;;;;;;;13.60;9.60;;;;;;;4.56;98.60;100061.13;5071851;28;20043;-68
2022/04/03 09:48:32;;;;;;;13.02;9.70;;;;;;;4.52;98.96;100067.56;5098212;28;20031;-68
2022/04/03 09:51:09;;;;;;;11.68;9.10;;;;;;;4.48;99.83;100062.56;5099383;28;20028;-68
2022/04/03 09:53:58;;;;;;;12.40;9.52;;;;;;;4.75;97.92;100084.63;5082244;28;20035;-68
2022/04/03 09:56:24;;;;;;;11.95;9.10;;;;;;;4.64;98.25;100076.50;5097392;28;20043;-69
2022/04/03 09:58:49;;;;;;;13.13;10.20;;;;;;;4.53;99.19;100079.91;5089676;28;20528;-68
2022/04/03 10:01:27;;;;;;;12.50;9.75;;;;;;;4.47;99.72;100088.28;5087149;28;20028;-69
2022/04/03 10:03:54;;;;;;;14.82;11.10;;;;;;;4.65;97.25;100092.34;5090084;28;20020;-69
2022/04/03 10:06:21;;;;;;;19.75;12.88;;;;;;;4.59;97.57;100086.59;5100370;28;20357;-69
2022/04/03 10:08:47;;;;;;;11.98;9.27;;;;;;;4.50;97.94;100079.25;5091943;28;20038;-68
2022/04/03 10:11:14;;;;;;;11.02;8.73;;;;;;;4.43;99.47;100088.59;5092146;28;20077;-69
2022/04/03 10:13:40;;;;;;;13.07;9.73;;;;;;;4.44;100.00;100095.59;5074166;28;20031;-67
2022/04/03 10:16:05;;;;;;;12.10;9.32;;;;;;;4.54;98.85;100081.59;5096893;28;20031;-68
2022/04/03 10:18:33;;;;;;;13.75;10.05;;;;;;;4.49;99.58;100082.88;5098610;28;20041;-68
2022/04/03 10:20:59;;;;;;;13.07;9.68;;;;;;;4.60;99.32;100069.72;5095551;28;20600;-68
2022/04/03 10:23:27;;;;;;;10.32;8.18;;;;;;;4.84;97.53;100091.97;5090032;28;20022;-68
2022/04/03 10:25:56;;;;;;;11.27;9.30;;;;;;;4.71;98.00;100086.63;5091086;28;20023;-67
2022/04/03 10:28:23;;;;;;;10.80;8.38;;;;;;;4.82;97.72;100100.97;5090009;28;20418;-67
2022/04/03 10:31:07;;;;;;;11.10;8.70;;;;;;;4.77;98.92;100095.16;5097033;28;20124;-68
2022/04/03 10:33:41;;;;;;;8.57;7.13;;;;;;;4.85;98.94;100100.78;5089684;28;20027;-68
2022/04/03 10:36:09;;;;;;;10.63;7.50;;;;;;;4.88;96.32;100101.44;5089862;28;20031;-67
2022/04/03 10:38:41;;;;;;;11.23;6.93;;;;;;;5.01;94.32;100104.09;5084273;28;20048;-67
2022/04/03 10:41:07;;;;;;;8.95;6.43;;;;;;;5.11;92.35;100106.03;5091575;28;20028;-68
2022/04/03 10:43:38;;;;;;;9.48;6.50;;;;;;;5.23;91.07;100110.50;5090167;28;20120;-67
2022/04/03 10:46:04;;;;;;;8.88;7.03;;;;;;;5.35;91.08;100106.13;5093155;28;20030;-67
2022/04/03 10:48:31;;;;;;;9.93;6.95;;;;;;;5.59;91.49;100113.25;5096745;28;20040;-66
2022/04/03 10:50:59;;;;;;;10.00;8.05;;;;;;;5.78;90.83;100112.78;5091156;28;20110;-67
2022/04/03 10:53:27;;;;;;;10.50;7.50;;;;;;;6.06;90.73;100113.34;5090876;28;20032;-67
2022/04/03 10:55:57;;;;;;;10.18;7.20;;;;;;;6.31;88.13;100113.28;5096652;28;20016;-67
2022/04/03 10:58:23;;;;;;;6.72;5.65;;;;;;;6.59;76.64;100120.94;5095971;28;20135;-67
2022/04/03 11:00:49;;;;;;;8.00;6.15;;;;;;;6.80;76.79;100116.63;5095362;28;20020;-67
2022/04/03 11:03:15;;;;;;;7.45;5.78;;;;;;;7.03;75.23;100115.75;5092667;28;20040;-68
2022/04/03 11:05:48;;;;;;;7.40;5.68;;;;;;;7.65;65.65;100115.34;5100846;28;20043;-67
2022/04/03 11:08:13;;;;;;;5.95;5.20;;;;;;;7.60;65.26;100114.84;5096454;28;20024;-67
2022/04/03 11:10:58;;;;;;;10.55;6.05;;;;;;;7.55;62.59;100106.38;5095917;28;20051;-67
2022/04/03 11:13:30;;;;;;;6.45;5.07;;;;;;;7.70;64.09;100113.16;5095365;28;20448;-68
2022/04/03 11:15:55;;;;;;;7.63;5.38;;;;;;;7.79;66.87;100123.94;5067879;28;20069;-67
2022/04/03 11:18:33;;;;;;;6.30;5.18;;;;;;;7.89;64.85;100122.25;5095212;28;20027;-68
2022/04/03 11:21:23;;;;;;;7.18;5.97;;;;;;;7.96;63.03;100119.94;5095506;28;20015;-68